Terminal Aerodrome Forecast
Issued by NWS Detroit/Pontiac, MI

Home | Current Version | Previous Version | Text Only | Print | Product List | Glossary On
Versions: 1 2 3 4 5 6 7 8 9 10 11 12 13 14 15 16 17 18 19
000
FTUS43 KDTX 291957 AAB
TAFFNT
TAF AMD
KFNT 291957Z 2920/3018 31011KT 3SM -SN OVC028
      TEMPO 2920/2921 1SM -SN OVC010
     FM292200 31012G25KT P6SM OVC016
     FM300200 31016G28KT P6SM -SHSN OVC024
     FM300700 32015G25KT P6SM BKN030=

USA.gov is the U.S. government's official web portal to all federal, state and local government web resources and services.